sensor_id;sensor_type;location;lat;lon;timestamp;P1;durP1;ratioP1;P2;durP2;ratioP2
3733;SDS011;1882;52.256;8.874;2023-04-24T00:02:13;1.80;;;1.70;;
3733;SDS011;1882;52.256;8.874;2023-04-24T00:04:40;2.17;;;1.90;;
3733;SDS011;1882;52.256;8.874;2023-04-24T00:07:11;3.30;;;1.70;;
3733;SDS011;1882;52.256;8.874;2023-04-24T00:09:42;2.90;;;1.80;;
3733;SDS011;1882;52.256;8.874;2023-04-24T00:12:15;2.70;;;1.70;;
3733;SDS011;1882;52.256;8.874;2023-04-24T00:14:54;2.20;;;1.80;;
3733;SDS011;1882;52.256;8.874;2023-04-24T00:17:21;1.80;;;1.70;;
3733;SDS011;1882;52.256;8.874;2023-04-24T00:19:49;4.43;;;1.40;;
3733;SDS011;1882;52.256;8.874;2023-04-24T00:22:29;1.67;;;1.50;;
3733;SDS011;1882;52.256;8.874;2023-04-24T00:24:57;1.43;;;1.33;;
3733;SDS011;1882;52.256;8.874;2023-04-24T00:27:26;1.20;;;1.20;;
3733;SDS011;1882;52.256;8.874;2023-04-24T00:29:53;1.40;;;1.30;;
3733;SDS011;1882;52.256;8.874;2023-04-24T00:32:19;1.20;;;1.10;;
3733;SDS011;1882;52.256;8.874;2023-04-24T00:34:47;3.37;;;1.10;;
3733;SDS011;1882;52.256;8.874;2023-04-24T00:37:14;1.17;;;1.17;;
3733;SDS011;1882;52.256;8.874;2023-04-24T00:39:43;1.10;;;1.10;;
3733;SDS011;1882;52.256;8.874;2023-04-24T00:42:10;1.67;;;1.10;;
3733;SDS011;1882;52.256;8.874;2023-04-24T00:44:37;1.33;;;1.07;;
3733;SDS011;1882;52.256;8.874;2023-04-24T00:47:05;1.30;;;1.20;;
3733;SDS011;1882;52.256;8.874;2023-04-24T00:49:31;1.20;;;1.10;;
3733;SDS011;1882;52.256;8.874;2023-04-24T00:51:58;1.20;;;1.10;;
3733;SDS011;1882;52.256;8.874;2023-04-24T00:54:26;1.20;;;1.10;;
3733;SDS011;1882;52.256;8.874;2023-04-24T00:56:53;1.90;;;1.00;;
3733;SDS011;1882;52.256;8.874;2023-04-24T00:59:19;1.00;;;1.00;;
3733;SDS011;1882;52.256;8.874;2023-04-24T01:01:46;1.20;;;1.10;;
3733;SDS011;1882;52.256;8.874;2023-04-24T01:04:13;1.43;;;1.13;;
3733;SDS011;1882;52.256;8.874;2023-04-24T01:06:47;1.00;;;1.00;;
3733;SDS011;1882;52.256;8.874;2023-04-24T01:09:17;1.10;;;1.00;;
3733;SDS011;1882;52.256;8.874;2023-04-24T01:11:46;1.17;;;1.00;;
3733;SDS011;1882;52.256;8.874;2023-04-24T01:14:14;1.83;;;1.00;;
3733;SDS011;1882;52.256;8.874;2023-04-24T01:16:43;0.97;;;0.97;;
3733;SDS011;1882;52.256;8.874;2023-04-24T01:19:10;1.30;;;1.20;;
3733;SDS011;1882;52.256;8.874;2023-04-24T01:21:38;1.10;;;1.10;;
3733;SDS011;1882;52.256;8.874;2023-04-24T01:24:06;1.20;;;1.00;;
3733;SDS011;1882;52.256;8.874;2023-04-24T01:26:33;1.27;;;1.17;;
3733;SDS011;1882;52.256;8.874;2023-04-24T01:29:00;1.33;;;1.20;;
3733;SDS011;1882;52.256;8.874;2023-04-24T01:31:26;2.20;;;1.23;;
3733;SDS011;1882;52.256;8.874;2023-04-24T01:33:54;1.43;;;1.33;;
3733;SDS011;1882;52.256;8.874;2023-04-24T01:36:21;3.77;;;1.50;;
3733;SDS011;1882;52.256;8.874;2023-04-24T01:38:51;1.30;;;1.20;;
3733;SDS011;1882;52.256;8.874;2023-04-24T01:41:18;1.43;;;1.33;;
3733;SDS011;1882;52.256;8.874;2023-04-24T01:43:46;1.37;;;1.20;;
3733;SDS011;1882;52.256;8.874;2023-04-24T01:46:13;1.30;;;1.20;;
3733;SDS011;1882;52.256;8.874;2023-04-24T01:48:40;2.17;;;0.93;;
3733;SDS011;1882;52.256;8.874;2023-04-24T01:51:09;3.13;;;1.20;;
3733;SDS011;1882;52.256;8.874;2023-04-24T01:53:38;1.20;;;1.10;;
3733;SDS011;1882;52.256;8.874;2023-04-24T01:56:04;1.40;;;1.30;;
3733;SDS011;1882;52.256;8.874;2023-04-24T01:58:32;2.50;;;1.20;;
3733;SDS011;1882;52.256;8.874;2023-04-24T02:01:01;1.57;;;1.23;;
3733;SDS011;1882;52.256;8.874;2023-04-24T02:03:27;1.20;;;1.17;;
3733;SDS011;1882;52.256;8.874;2023-04-24T02:05:57;4.90;;;1.60;;
3733;SDS011;1882;52.256;8.874;2023-04-24T02:08:23;1.50;;;1.37;;
3733;SDS011;1882;52.256;8.874;2023-04-24T02:10:50;2.23;;;1.30;;
3733;SDS011;1882;52.256;8.874;2023-04-24T02:13:17;5.13;;;1.50;;
3733;SDS011;1882;52.256;8.874;2023-04-24T02:15:44;1.60;;;1.50;;
3733;SDS011;1882;52.256;8.874;2023-04-24T02:18:13;1.70;;;1.60;;
3733;SDS011;1882;52.256;8.874;2023-04-24T02:20:39;1.67;;;1.30;;
3733;SDS011;1882;52.256;8.874;2023-04-24T02:23:06;2.30;;;1.40;;
3733;SDS011;1882;52.256;8.874;2023-04-24T02:25:33;1.60;;;1.50;;
3733;SDS011;1882;52.256;8.874;2023-04-24T02:28:00;1.90;;;1.80;;
3733;SDS011;1882;52.256;8.874;2023-04-24T02:30:29;1.70;;;1.60;;
3733;SDS011;1882;52.256;8.874;2023-04-24T02:32:56;2.60;;;1.60;;
3733;SDS011;1882;52.256;8.874;2023-04-24T02:35:23;1.70;;;1.60;;
3733;SDS011;1882;52.256;8.874;2023-04-24T02:37:50;1.60;;;1.50;;
3733;SDS011;1882;52.256;8.874;2023-04-24T02:40:16;2.33;;;1.70;;
3733;SDS011;1882;52.256;8.874;2023-04-24T02:42:50;1.80;;;1.70;;
3733;SDS011;1882;52.256;8.874;2023-04-24T02:45:20;2.00;;;1.90;;
3733;SDS011;1882;52.256;8.874;2023-04-24T02:47:53;2.03;;;1.67;;
3733;SDS011;1882;52.256;8.874;2023-04-24T02:50:20;1.80;;;1.70;;
3733;SDS011;1882;52.256;8.874;2023-04-24T02:52:47;3.50;;;1.90;;
3733;SDS011;1882;52.256;8.874;2023-04-24T02:55:14;2.23;;;2.03;;
3733;SDS011;1882;52.256;8.874;2023-04-24T02:57:41;4.20;;;1.97;;
3733;SDS011;1882;52.256;8.874;2023-04-24T03:00:08;2.60;;;2.00;;
3733;SDS011;1882;52.256;8.874;2023-04-24T03:02:35;2.10;;;1.90;;
3733;SDS011;1882;52.256;8.874;2023-04-24T03:05:02;2.30;;;2.10;;
3733;SDS011;1882;52.256;8.874;2023-04-24T03:07:30;2.30;;;2.10;;
3733;SDS011;1882;52.256;8.874;2023-04-24T03:09:58;2.40;;;2.20;;
3733;SDS011;1882;52.256;8.874;2023-04-24T03:12:25;8.00;;;2.20;;
3733;SDS011;1882;52.256;8.874;2023-04-24T03:14:54;2.20;;;2.07;;
3733;SDS011;1882;52.256;8.874;2023-04-24T03:17:21;4.57;;;2.70;;
3733;SDS011;1882;52.256;8.874;2023-04-24T03:19:48;2.33;;;2.13;;
3733;SDS011;1882;52.256;8.874;2023-04-24T03:22:15;4.10;;;2.13;;
3733;SDS011;1882;52.256;8.874;2023-04-24T03:24:42;2.37;;;2.10;;
3733;SDS011;1882;52.256;8.874;2023-04-24T03:27:08;2.07;;;1.97;;
3733;SDS011;1882;52.256;8.874;2023-04-24T03:29:54;2.17;;;1.90;;
3733;SDS011;1882;52.256;8.874;2023-04-24T03:32:32;2.10;;;1.87;;
3733;SDS011;1882;52.256;8.874;2023-04-24T03:34:59;1.80;;;1.70;;
3733;SDS011;1882;52.256;8.874;2023-04-24T03:37:28;2.10;;;1.90;;
3733;SDS011;1882;52.256;8.874;2023-04-24T03:40:07;1.80;;;1.70;;
3733;SDS011;1882;52.256;8.874;2023-04-24T03:42:35;2.97;;;1.80;;
3733;SDS011;1882;52.256;8.874;2023-04-24T03:45:05;1.87;;;1.70;;
3733;SDS011;1882;52.256;8.874;2023-04-24T03:47:35;2.20;;;1.70;;
3733;SDS011;1882;52.256;8.874;2023-04-24T03:50:04;1.90;;;1.70;;
3733;SDS011;1882;52.256;8.874;2023-04-24T03:52:32;1.80;;;1.70;;
3733;SDS011;1882;52.256;8.874;2023-04-24T03:54:59;2.03;;;1.93;;
3733;SDS011;1882;52.256;8.874;2023-04-24T03:57:28;2.03;;;1.83;;
3733;SDS011;1882;52.256;8.874;2023-04-24T04:00:12;2.10;;;1.70;;
3733;SDS011;1882;52.256;8.874;2023-04-24T04:02:45;1.90;;;1.80;;
3733;SDS011;1882;52.256;8.874;2023-04-24T04:05:13;1.53;;;1.40;;
3733;SDS011;1882;52.256;8.874;2023-04-24T04:07:40;1.77;;;1.67;;
3733;SDS011;1882;52.256;8.874;2023-04-24T04:10:07;1.90;;;1.70;;
3733;SDS011;1882;52.256;8.874;2023-04-24T04:12:36;1.60;;;1.50;;
3733;SDS011;1882;52.256;8.874;2023-04-24T04:15:03;2.03;;;1.83;;
3733;SDS011;1882;52.256;8.874;2023-04-24T04:17:31;4.13;;;1.80;;
3733;SDS011;1882;52.256;8.874;2023-04-24T04:20:01;2.30;;;1.70;;
3733;SDS011;1882;52.256;8.874;2023-04-24T04:22:28;1.90;;;1.80;;
3733;SDS011;1882;52.256;8.874;2023-04-24T04:24:56;4.23;;;1.90;;
3733;SDS011;1882;52.256;8.874;2023-04-24T04:27:24;1.90;;;1.80;;
3733;SDS011;1882;52.256;8.874;2023-04-24T04:30:01;1.97;;;1.80;;
3733;SDS011;1882;52.256;8.874;2023-04-24T04:32:39;2.03;;;1.93;;
3733;SDS011;1882;52.256;8.874;2023-04-24T04:35:08;2.23;;;2.03;;
3733;SDS011;1882;52.256;8.874;2023-04-24T04:37:37;1.90;;;1.80;;
3733;SDS011;1882;52.256;8.874;2023-04-24T04:40:11;2.00;;;1.80;;
3733;SDS011;1882;52.256;8.874;2023-04-24T04:42:48;4.23;;;2.23;;
3733;SDS011;1882;52.256;8.874;2023-04-24T04:45:15;2.23;;;1.97;;
3733;SDS011;1882;52.256;8.874;2023-04-24T04:48:03;3.50;;;2.10;;
3733;SDS011;1882;52.256;8.874;2023-04-24T04:50:40;2.57;;;2.37;;
3733;SDS011;1882;52.256;8.874;2023-04-24T04:53:07;2.73;;;2.30;;
3733;SDS011;1882;52.256;8.874;2023-04-24T04:55:37;2.23;;;2.03;;
3733;SDS011;1882;52.256;8.874;2023-04-24T04:58:13;2.87;;;2.33;;
3733;SDS011;1882;52.256;8.874;2023-04-24T05:00:40;3.80;;;2.43;;
3733;SDS011;1882;52.256;8.874;2023-04-24T05:03:17;2.80;;;2.60;;
3733;SDS011;1882;52.256;8.874;2023-04-24T05:05:53;5.67;;;2.30;;
3733;SDS011;1882;52.256;8.874;2023-04-24T05:08:20;5.67;;;2.40;;
3733;SDS011;1882;52.256;8.874;2023-04-24T05:10:53;2.67;;;2.37;;
3733;SDS011;1882;52.256;8.874;2023-04-24T05:13:23;3.50;;;2.70;;
3733;SDS011;1882;52.256;8.874;2023-04-24T05:16:14;4.70;;;2.50;;
3733;SDS011;1882;52.256;8.874;2023-04-24T05:18:41;3.73;;;2.70;;
3733;SDS011;1882;52.256;8.874;2023-04-24T05:21:12;4.73;;;2.90;;
3733;SDS011;1882;52.256;8.874;2023-04-24T05:23:45;6.33;;;3.00;;
3733;SDS011;1882;52.256;8.874;2023-04-24T05:26:16;3.30;;;2.90;;
3733;SDS011;1882;52.256;8.874;2023-04-24T05:28:46;4.17;;;3.23;;
3733;SDS011;1882;52.256;8.874;2023-04-24T05:31:14;6.07;;;3.77;;
3733;SDS011;1882;52.256;8.874;2023-04-24T05:33:41;4.63;;;3.43;;
3733;SDS011;1882;52.256;8.874;2023-04-24T05:36:10;5.63;;;3.77;;
3733;SDS011;1882;52.256;8.874;2023-04-24T05:38:37;5.60;;;4.37;;
3733;SDS011;1882;52.256;8.874;2023-04-24T05:41:07;8.03;;;4.80;;
3733;SDS011;1882;52.256;8.874;2023-04-24T05:43:35;10.70;;;5.90;;
3733;SDS011;1882;52.256;8.874;2023-04-24T05:46:19;15.87;;;6.30;;
3733;SDS011;1882;52.256;8.874;2023-04-24T05:48:46;7.27;;;6.03;;
3733;SDS011;1882;52.256;8.874;2023-04-24T05:51:15;10.70;;;7.30;;
3733;SDS011;1882;52.256;8.874;2023-04-24T05:53:42;11.67;;;6.93;;
3733;SDS011;1882;52.256;8.874;2023-04-24T05:56:10;16.80;;;8.33;;
3733;SDS011;1882;52.256;8.874;2023-04-24T05:58:38;11.53;;;8.10;;
3733;SDS011;1882;52.256;8.874;2023-04-24T06:01:08;12.60;;;7.80;;
3733;SDS011;1882;52.256;8.874;2023-04-24T06:03:37;12.23;;;8.20;;
3733;SDS011;1882;52.256;8.874;2023-04-24T06:06:05;14.00;;;8.13;;
3733;SDS011;1882;52.256;8.874;2023-04-24T06:08:34;14.93;;;8.17;;
3733;SDS011;1882;52.256;8.874;2023-04-24T06:11:01;14.97;;;8.40;;
3733;SDS011;1882;52.256;8.874;2023-04-24T06:13:31;13.60;;;8.37;;
3733;SDS011;1882;52.256;8.874;2023-04-24T06:16:32;10.93;;;8.10;;
3733;SDS011;1882;52.256;8.874;2023-04-24T06:19:07;15.73;;;8.53;;
3733;SDS011;1882;52.256;8.874;2023-04-24T06:21:34;15.00;;;8.60;;
3733;SDS011;1882;52.256;8.874;2023-04-24T06:24:02;13.83;;;8.67;;
3733;SDS011;1882;52.256;8.874;2023-04-24T06:26:30;12.10;;;8.03;;
3733;SDS011;1882;52.256;8.874;2023-04-24T06:28:59;13.37;;;9.20;;
3733;SDS011;1882;52.256;8.874;2023-04-24T06:31:26;13.23;;;8.50;;
3733;SDS011;1882;52.256;8.874;2023-04-24T06:33:53;14.57;;;9.27;;
3733;SDS011;1882;52.256;8.874;2023-04-24T06:36:20;12.20;;;7.90;;
3733;SDS011;1882;52.256;8.874;2023-04-24T06:38:47;14.10;;;9.30;;
3733;SDS011;1882;52.256;8.874;2023-04-24T06:41:13;15.03;;;9.00;;
3733;SDS011;1882;52.256;8.874;2023-04-24T06:43:40;14.30;;;8.53;;
3733;SDS011;1882;52.256;8.874;2023-04-24T06:46:07;14.87;;;9.10;;
3733;SDS011;1882;52.256;8.874;2023-04-24T06:48:34;18.93;;;10.10;;
3733;SDS011;1882;52.256;8.874;2023-04-24T06:51:01;12.60;;;8.70;;
3733;SDS011;1882;52.256;8.874;2023-04-24T06:53:28;15.40;;;9.67;;
3733;SDS011;1882;52.256;8.874;2023-04-24T06:55:54;18.70;;;10.73;;
3733;SDS011;1882;52.256;8.874;2023-04-24T06:58:21;14.47;;;10.03;;
3733;SDS011;1882;52.256;8.874;2023-04-24T07:00:48;13.70;;;9.07;;
3733;SDS011;1882;52.256;8.874;2023-04-24T07:03:15;12.97;;;9.17;;
3733;SDS011;1882;52.256;8.874;2023-04-24T07:05:42;15.33;;;10.10;;
3733;SDS011;1882;52.256;8.874;2023-04-24T07:08:09;16.20;;;10.90;;
3733;SDS011;1882;52.256;8.874;2023-04-24T07:10:39;15.40;;;10.17;;
3733;SDS011;1882;52.256;8.874;2023-04-24T07:13:06;16.90;;;10.80;;
3733;SDS011;1882;52.256;8.874;2023-04-24T07:15:35;17.97;;;10.70;;
3733;SDS011;1882;52.256;8.874;2023-04-24T07:18:02;15.80;;;10.93;;
3733;SDS011;1882;52.256;8.874;2023-04-24T07:20:31;15.20;;;10.83;;
3733;SDS011;1882;52.256;8.874;2023-04-24T07:22:58;18.10;;;11.10;;
3733;SDS011;1882;52.256;8.874;2023-04-24T07:25:27;16.80;;;10.90;;
3733;SDS011;1882;52.256;8.874;2023-04-24T07:27:54;15.90;;;10.73;;
3733;SDS011;1882;52.256;8.874;2023-04-24T07:30:21;17.00;;;11.33;;
3733;SDS011;1882;52.256;8.874;2023-04-24T07:32:48;18.10;;;11.07;;
3733;SDS011;1882;52.256;8.874;2023-04-24T07:35:14;17.77;;;11.20;;
3733;SDS011;1882;52.256;8.874;2023-04-24T07:37:41;17.47;;;11.17;;
3733;SDS011;1882;52.256;8.874;2023-04-24T07:40:12;17.03;;;11.67;;
3733;SDS011;1882;52.256;8.874;2023-04-24T07:42:40;16.70;;;11.60;;
3733;SDS011;1882;52.256;8.874;2023-04-24T07:45:06;18.43;;;11.70;;
3733;SDS011;1882;52.256;8.874;2023-04-24T07:47:33;14.80;;;10.47;;
3733;SDS011;1882;52.256;8.874;2023-04-24T07:50:01;21.90;;;12.00;;
3733;SDS011;1882;52.256;8.874;2023-04-24T07:52:28;14.43;;;10.63;;
3733;SDS011;1882;52.256;8.874;2023-04-24T07:54:56;19.30;;;11.77;;
3733;SDS011;1882;52.256;8.874;2023-04-24T07:57:26;17.07;;;11.00;;
3733;SDS011;1882;52.256;8.874;2023-04-24T07:59:53;14.10;;;10.20;;
3733;SDS011;1882;52.256;8.874;2023-04-24T08:02:20;15.23;;;10.23;;
3733;SDS011;1882;52.256;8.874;2023-04-24T08:04:53;14.70;;;10.10;;
3733;SDS011;1882;52.256;8.874;2023-04-24T08:07:25;16.23;;;10.70;;
3733;SDS011;1882;52.256;8.874;2023-04-24T08:09:52;14.43;;;10.20;;
3733;SDS011;1882;52.256;8.874;2023-04-24T08:12:19;16.40;;;10.67;;
3733;SDS011;1882;52.256;8.874;2023-04-24T08:14:45;15.03;;;9.03;;
3733;SDS011;1882;52.256;8.874;2023-04-24T08:17:12;14.50;;;8.90;;
3733;SDS011;1882;52.256;8.874;2023-04-24T08:19:40;12.00;;;8.93;;
3733;SDS011;1882;52.256;8.874;2023-04-24T08:22:16;13.57;;;8.57;;
3733;SDS011;1882;52.256;8.874;2023-04-24T08:24:44;11.47;;;8.77;;
3733;SDS011;1882;52.256;8.874;2023-04-24T08:27:13;10.40;;;8.20;;
3733;SDS011;1882;52.256;8.874;2023-04-24T08:29:40;13.53;;;8.93;;
3733;SDS011;1882;52.256;8.874;2023-04-24T08:32:07;11.63;;;8.50;;
3733;SDS011;1882;52.256;8.874;2023-04-24T08:34:34;10.90;;;8.83;;
3733;SDS011;1882;52.256;8.874;2023-04-24T08:37:01;13.53;;;9.47;;
3733;SDS011;1882;52.256;8.874;2023-04-24T08:39:28;10.60;;;8.00;;
3733;SDS011;1882;52.256;8.874;2023-04-24T08:41:55;11.27;;;8.20;;
3733;SDS011;1882;52.256;8.874;2023-04-24T08:44:23;12.57;;;7.50;;
3733;SDS011;1882;52.256;8.874;2023-04-24T08:46:49;9.47;;;7.43;;
3733;SDS011;1882;52.256;8.874;2023-04-24T08:49:17;11.00;;;7.20;;
3733;SDS011;1882;52.256;8.874;2023-04-24T08:51:45;9.50;;;6.70;;
3733;SDS011;1882;52.256;8.874;2023-04-24T08:54:13;7.97;;;6.90;;
3733;SDS011;1882;52.256;8.874;2023-04-24T08:56:40;8.50;;;6.60;;
3733;SDS011;1882;52.256;8.874;2023-04-24T09:03:16;7.53;;;6.30;;
3733;SDS011;1882;52.256;8.874;2023-04-24T09:05:47;9.73;;;6.40;;
3733;SDS011;1882;52.256;8.874;2023-04-24T09:08:16;8.43;;;7.10;;
3733;SDS011;1882;52.256;8.874;2023-04-24T09:10:44;8.27;;;6.40;;
3733;SDS011;1882;52.256;8.874;2023-04-24T09:13:11;9.23;;;6.70;;
3733;SDS011;1882;52.256;8.874;2023-04-24T09:15:38;7.57;;;6.20;;
3733;SDS011;1882;52.256;8.874;2023-04-24T09:18:06;10.67;;;6.70;;
3733;SDS011;1882;52.256;8.874;2023-04-24T09:20:33;6.50;;;5.67;;
3733;SDS011;1882;52.256;8.874;2023-04-24T09:23:02;7.00;;;5.63;;
3733;SDS011;1882;52.256;8.874;2023-04-24T09:25:32;5.90;;;5.30;;
3733;SDS011;1882;52.256;8.874;2023-04-24T09:28:05;5.47;;;4.90;;
3733;SDS011;1882;52.256;8.874;2023-04-24T09:30:33;5.30;;;4.80;;
3733;SDS011;1882;52.256;8.874;2023-04-24T09:35:43;6.33;;;4.40;;
3733;SDS011;1882;52.256;8.874;2023-04-24T09:38:16;3.97;;;3.57;;
3733;SDS011;1882;52.256;8.874;2023-04-24T09:40:43;4.80;;;4.10;;
3733;SDS011;1882;52.256;8.874;2023-04-24T09:43:10;3.90;;;3.60;;
3733;SDS011;1882;52.256;8.874;2023-04-24T09:45:38;4.50;;;4.00;;
3733;SDS011;1882;52.256;8.874;2023-04-24T09:48:09;4.10;;;3.70;;
3733;SDS011;1882;52.256;8.874;2023-04-24T09:50:37;3.93;;;3.63;;
3733;SDS011;1882;52.256;8.874;2023-04-24T09:53:05;4.40;;;3.50;;
3733;SDS011;1882;52.256;8.874;2023-04-24T09:55:42;3.60;;;3.30;;
3733;SDS011;1882;52.256;8.874;2023-04-24T09:58:11;4.33;;;3.93;;
3733;SDS011;1882;52.256;8.874;2023-04-24T10:00:38;4.50;;;4.10;;
3733;SDS011;1882;52.256;8.874;2023-04-24T10:03:05;3.80;;;3.50;;
3733;SDS011;1882;52.256;8.874;2023-04-24T10:05:33;3.50;;;3.20;;
3733;SDS011;1882;52.256;8.874;2023-04-24T10:10:28;3.60;;;3.30;;
3733;SDS011;1882;52.256;8.874;2023-04-24T10:12:55;3.20;;;2.90;;
3733;SDS011;1882;52.256;8.874;2023-04-24T10:15:22;3.50;;;3.20;;
3733;SDS011;1882;52.256;8.874;2023-04-24T10:17:52;3.70;;;3.40;;
3733;SDS011;1882;52.256;8.874;2023-04-24T10:20:23;5.00;;;2.80;;
3733;SDS011;1882;52.256;8.874;2023-04-24T10:22:53;3.40;;;2.97;;
3733;SDS011;1882;52.256;8.874;2023-04-24T10:25:28;3.90;;;2.70;;
3733;SDS011;1882;52.256;8.874;2023-04-24T10:27:57;2.83;;;2.50;;
3733;SDS011;1882;52.256;8.874;2023-04-24T10:30:26;3.60;;;3.03;;
3733;SDS011;1882;52.256;8.874;2023-04-24T10:32:56;6.07;;;3.10;;
3733;SDS011;1882;52.256;8.874;2023-04-24T10:35:23;2.93;;;2.73;;
3733;SDS011;1882;52.256;8.874;2023-04-24T10:40:27;3.07;;;2.80;;
3733;SDS011;1882;52.256;8.874;2023-04-24T10:42:56;3.60;;;2.70;;
3733;SDS011;1882;52.256;8.874;2023-04-24T10:45:24;2.70;;;2.50;;
3733;SDS011;1882;52.256;8.874;2023-04-24T10:48:03;3.27;;;2.50;;
3733;SDS011;1882;52.256;8.874;2023-04-24T10:50:46;3.70;;;3.03;;
3733;SDS011;1882;52.256;8.874;2023-04-24T10:53:15;2.70;;;2.50;;
3733;SDS011;1882;52.256;8.874;2023-04-24T10:58:35;2.83;;;2.57;;
3733;SDS011;1882;52.256;8.874;2023-04-24T11:01:25;2.70;;;2.50;;
3733;SDS011;1882;52.256;8.874;2023-04-24T11:03:57;2.57;;;2.37;;
3733;SDS011;1882;52.256;8.874;2023-04-24T11:06:30;4.10;;;2.77;;
3733;SDS011;1882;52.256;8.874;2023-04-24T11:09:02;2.80;;;2.03;;
3733;SDS011;1882;52.256;8.874;2023-04-24T11:11:34;4.50;;;2.70;;
3733;SDS011;1882;52.256;8.874;2023-04-24T11:14:03;3.00;;;2.80;;
3733;SDS011;1882;52.256;8.874;2023-04-24T11:16:32;3.27;;;3.00;;
3733;SDS011;1882;52.256;8.874;2023-04-24T11:19:01;4.00;;;3.70;;
3733;SDS011;1882;52.256;8.874;2023-04-24T11:27:19;4.20;;;3.80;;
3733;SDS011;1882;52.256;8.874;2023-04-24T11:37:40;4.00;;;3.70;;
3733;SDS011;1882;52.256;8.874;2023-04-24T11:40:32;4.60;;;4.20;;
3733;SDS011;1882;52.256;8.874;2023-04-24T11:42:59;4.93;;;4.53;;
3733;SDS011;1882;52.256;8.874;2023-04-24T11:45:27;5.10;;;4.60;;
3733;SDS011;1882;52.256;8.874;2023-04-24T11:47:55;4.63;;;4.23;;
3733;SDS011;1882;52.256;8.874;2023-04-24T11:50:23;5.03;;;4.50;;
3733;SDS011;1882;52.256;8.874;2023-04-24T11:52:52;5.37;;;4.87;;
3733;SDS011;1882;52.256;8.874;2023-04-24T11:57:50;6.43;;;4.57;;
3733;SDS011;1882;52.256;8.874;2023-04-24T12:00:18;5.70;;;5.20;;
3733;SDS011;1882;52.256;8.874;2023-04-24T12:02:51;5.53;;;5.03;;
3733;SDS011;1882;52.256;8.874;2023-04-24T12:05:19;5.03;;;4.50;;
3733;SDS011;1882;52.256;8.874;2023-04-24T12:07:47;6.23;;;5.10;;
3733;SDS011;1882;52.256;8.874;2023-04-24T12:10:19;4.90;;;4.50;;
3733;SDS011;1882;52.256;8.874;2023-04-24T12:12:50;4.70;;;4.23;;
3733;SDS011;1882;52.256;8.874;2023-04-24T12:15:19;4.37;;;3.80;;
3733;SDS011;1882;52.256;8.874;2023-04-24T12:17:46;4.00;;;3.70;;
3733;SDS011;1882;52.256;8.874;2023-04-24T12:20:14;3.83;;;3.53;;
3733;SDS011;1882;52.256;8.874;2023-04-24T12:22:52;3.50;;;3.20;;
3733;SDS011;1882;52.256;8.874;2023-04-24T12:25:24;3.67;;;3.20;;
3733;SDS011;1882;52.256;8.874;2023-04-24T12:27:53;3.30;;;3.00;;
3733;SDS011;1882;52.256;8.874;2023-04-24T12:30:44;3.30;;;2.90;;
3733;SDS011;1882;52.256;8.874;2023-04-24T12:33:18;2.97;;;2.77;;
3733;SDS011;1882;52.256;8.874;2023-04-24T12:35:47;2.83;;;2.50;;
3733;SDS011;1882;52.256;8.874;2023-04-24T12:38:23;2.43;;;2.23;;
3733;SDS011;1882;52.256;8.874;2023-04-24T12:41:02;2.33;;;2.23;;
3733;SDS011;1882;52.256;8.874;2023-04-24T12:43:36;3.67;;;2.30;;
3733;SDS011;1882;52.256;8.874;2023-04-24T12:46:07;2.93;;;2.43;;
3733;SDS011;1882;52.256;8.874;2023-04-24T12:48:33;3.00;;;2.30;;
3733;SDS011;1882;52.256;8.874;2023-04-24T12:51:00;2.70;;;2.10;;
3733;SDS011;1882;52.256;8.874;2023-04-24T12:53:28;2.03;;;1.93;;
3733;SDS011;1882;52.256;8.874;2023-04-24T12:55:56;2.37;;;2.17;;
3733;SDS011;1882;52.256;8.874;2023-04-24T12:58:26;4.10;;;2.30;;
3733;SDS011;1882;52.256;8.874;2023-04-24T13:00:52;2.63;;;2.13;;
3733;SDS011;1882;52.256;8.874;2023-04-24T13:03:19;3.63;;;2.50;;
3733;SDS011;1882;52.256;8.874;2023-04-24T13:05:46;2.73;;;2.40;;
3733;SDS011;1882;52.256;8.874;2023-04-24T13:08:13;4.23;;;2.70;;
3733;SDS011;1882;52.256;8.874;2023-04-24T13:10:40;4.03;;;3.10;;
3733;SDS011;1882;52.256;8.874;2023-04-24T13:13:07;5.73;;;3.50;;
3733;SDS011;1882;52.256;8.874;2023-04-24T13:15:34;8.00;;;3.80;;
3733;SDS011;1882;52.256;8.874;2023-04-24T13:18:01;6.20;;;4.10;;
3733;SDS011;1882;52.256;8.874;2023-04-24T13:20:28;6.37;;;4.10;;
3733;SDS011;1882;52.256;8.874;2023-04-24T13:22:55;8.17;;;4.30;;
3733;SDS011;1882;52.256;8.874;2023-04-24T13:25:21;5.23;;;4.27;;
3733;SDS011;1882;52.256;8.874;2023-04-24T13:27:49;7.90;;;4.93;;
3733;SDS011;1882;52.256;8.874;2023-04-24T13:30:17;6.40;;;4.40;;
3733;SDS011;1882;52.256;8.874;2023-04-24T13:32:44;9.13;;;4.57;;
3733;SDS011;1882;52.256;8.874;2023-04-24T13:35:14;5.80;;;4.73;;
3733;SDS011;1882;52.256;8.874;2023-04-24T13:37:40;8.93;;;4.60;;
3733;SDS011;1882;52.256;8.874;2023-04-24T13:40:07;6.10;;;4.20;;
3733;SDS011;1882;52.256;8.874;2023-04-24T13:42:35;7.27;;;4.40;;
3733;SDS011;1882;52.256;8.874;2023-04-24T13:45:03;6.57;;;4.73;;
3733;SDS011;1882;52.256;8.874;2023-04-24T13:47:50;6.40;;;3.77;;
3733;SDS011;1882;52.256;8.874;2023-04-24T13:50:18;8.03;;;4.00;;
3733;SDS011;1882;52.256;8.874;2023-04-24T13:52:45;5.83;;;3.53;;
3733;SDS011;1882;52.256;8.874;2023-04-24T13:55:11;5.60;;;3.60;;
3733;SDS011;1882;52.256;8.874;2023-04-24T13:57:39;6.50;;;3.77;;
3733;SDS011;1882;52.256;8.874;2023-04-24T14:00:06;6.83;;;4.00;;
3733;SDS011;1882;52.256;8.874;2023-04-24T14:02:41;9.57;;;3.70;;
3733;SDS011;1882;52.256;8.874;2023-04-24T14:05:08;8.50;;;4.60;;
3733;SDS011;1882;52.256;8.874;2023-04-24T14:07:37;7.73;;;4.37;;
3733;SDS011;1882;52.256;8.874;2023-04-24T14:10:04;8.87;;;4.67;;
3733;SDS011;1882;52.256;8.874;2023-04-24T14:12:32;10.20;;;4.10;;
3733;SDS011;1882;52.256;8.874;2023-04-24T14:14:59;9.83;;;4.30;;
3733;SDS011;1882;52.256;8.874;2023-04-24T14:17:28;7.00;;;4.33;;
3733;SDS011;1882;52.256;8.874;2023-04-24T14:19:55;12.00;;;4.63;;
3733;SDS011;1882;52.256;8.874;2023-04-24T14:22:23;7.53;;;4.60;;
3733;SDS011;1882;52.256;8.874;2023-04-24T14:24:53;10.93;;;4.77;;
3733;SDS011;1882;52.256;8.874;2023-04-24T14:27:19;9.63;;;4.73;;
3733;SDS011;1882;52.256;8.874;2023-04-24T14:29:47;11.97;;;5.30;;
3733;SDS011;1882;52.256;8.874;2023-04-24T14:32:13;13.33;;;5.67;;
3733;SDS011;1882;52.256;8.874;2023-04-24T14:34:41;10.47;;;5.17;;
3733;SDS011;1882;52.256;8.874;2023-04-24T14:37:09;11.73;;;5.07;;
3733;SDS011;1882;52.256;8.874;2023-04-24T14:39:35;6.97;;;5.10;;
3733;SDS011;1882;52.256;8.874;2023-04-24T14:42:02;12.73;;;5.03;;
3733;SDS011;1882;52.256;8.874;2023-04-24T14:44:29;10.80;;;5.13;;
3733;SDS011;1882;52.256;8.874;2023-04-24T14:46:58;9.43;;;5.50;;
3733;SDS011;1882;52.256;8.874;2023-04-24T14:49:26;11.77;;;5.47;;
3733;SDS011;1882;52.256;8.874;2023-04-24T14:51:53;11.37;;;5.87;;
3733;SDS011;1882;52.256;8.874;2023-04-24T14:54:20;8.63;;;5.23;;
3733;SDS011;1882;52.256;8.874;2023-04-24T14:56:49;10.47;;;5.63;;
3733;SDS011;1882;52.256;8.874;2023-04-24T14:59:16;11.10;;;5.90;;
3733;SDS011;1882;52.256;8.874;2023-04-24T15:01:44;16.60;;;5.80;;
3733;SDS011;1882;52.256;8.874;2023-04-24T15:04:11;15.23;;;6.37;;
3733;SDS011;1882;52.256;8.874;2023-04-24T15:06:39;11.17;;;7.43;;
3733;SDS011;1882;52.256;8.874;2023-04-24T15:09:05;18.73;;;6.20;;
3733;SDS011;1882;52.256;8.874;2023-04-24T15:11:32;34.73;;;14.47;;
3733;SDS011;1882;52.256;8.874;2023-04-24T15:14:00;27.17;;;14.53;;
3733;SDS011;1882;52.256;8.874;2023-04-24T15:16:27;13.73;;;6.50;;
3733;SDS011;1882;52.256;8.874;2023-04-24T15:18:54;14.03;;;7.33;;
3733;SDS011;1882;52.256;8.874;2023-04-24T15:21:20;14.10;;;6.80;;
3733;SDS011;1882;52.256;8.874;2023-04-24T15:23:47;11.97;;;7.07;;
3733;SDS011;1882;52.256;8.874;2023-04-24T15:26:14;24.93;;;8.43;;
3733;SDS011;1882;52.256;8.874;2023-04-24T15:28:41;10.43;;;6.53;;
3733;SDS011;1882;52.256;8.874;2023-04-24T15:31:08;8.23;;;4.10;;
3733;SDS011;1882;52.256;8.874;2023-04-24T15:33:35;8.80;;;4.50;;
3733;SDS011;1882;52.256;8.874;2023-04-24T15:36:01;6.93;;;4.83;;
3733;SDS011;1882;52.256;8.874;2023-04-24T15:38:28;9.43;;;5.40;;
3733;SDS011;1882;52.256;8.874;2023-04-24T15:40:57;9.43;;;4.80;;
3733;SDS011;1882;52.256;8.874;2023-04-24T15:43:24;9.10;;;4.60;;
3733;SDS011;1882;52.256;8.874;2023-04-24T15:45:55;7.17;;;4.80;;
3733;SDS011;1882;52.256;8.874;2023-04-24T15:48:22;10.03;;;5.50;;
3733;SDS011;1882;52.256;8.874;2023-04-24T15:50:49;9.93;;;5.27;;
3733;SDS011;1882;52.256;8.874;2023-04-24T15:53:17;9.67;;;5.30;;